createdAt,value
2023-03-06T00:01:03.118Z,67.75
2023-03-06T00:11:05.501Z,68.96
2023-03-06T00:21:08.571Z,69.91
2023-03-06T00:31:10.815Z,70.74
2023-03-06T00:41:13.480Z,70.88
2023-03-06T00:51:17.347Z,70.74
2023-03-06T01:01:19.689Z,70.80
2023-03-06T01:11:22.481Z,71.68
2023-03-06T01:21:25.008Z,72.68
2023-03-06T01:31:27.267Z,73.37
2023-03-06T01:41:30.086Z,74.94
2023-03-06T01:51:36.310Z,75.84
2023-03-06T02:01:40.675Z,76.79
2023-03-06T02:11:44.378Z,76.60
2023-03-06T02:21:46.801Z,76.01
2023-03-06T02:31:49.196Z,74.94
2023-03-06T06:05:11.800Z,84.12
2023-03-06T06:15:15.519Z,80.59
2023-03-06T06:25:17.802Z,76.06
2023-03-06T06:35:20.224Z,73.18
2023-03-06T06:45:22.482Z,71.41
2023-03-06T06:55:24.648Z,69.00
2023-03-06T07:05:26.972Z,68.06
2023-03-06T07:15:30.964Z,65.29
2023-03-06T07:25:34.159Z,61.93
2023-03-06T07:35:36.978Z,61.14
2023-03-06T07:45:39.275Z,57.27
2023-03-06T07:55:41.786Z,56.40
2023-03-06T08:05:44.974Z,55.84
2023-03-06T08:15:48.930Z,59.28
2023-03-06T08:25:56.576Z,58.98
2023-03-06T08:36:00.644Z,59.04
2023-03-06T08:46:03.784Z,59.39
2023-03-06T08:56:06.561Z,56.18
2023-03-06T09:06:08.761Z,56.67
2023-03-06T09:16:12.184Z,55.72
2023-03-06T09:26:14.545Z,53.79
2023-03-06T09:36:19.433Z,51.74
2023-03-06T09:46:25.667Z,52.90
2023-03-06T09:56:32.932Z,49.68
2023-03-06T10:06:57.062Z,51.28
2023-03-06T10:16:59.405Z,51.73
2023-03-06T10:27:26.158Z,52.76
2023-03-06T10:37:32.650Z,53.24
2023-03-06T10:47:35.488Z,54.05
2023-03-06T10:57:37.694Z,53.74
2023-03-06T11:07:55.372Z,53.22
2023-03-06T11:18:01.844Z,53.55
2023-03-06T11:28:47.096Z,53.63
2023-03-06T11:38:51.739Z,54.82
2023-03-06T11:49:01.533Z,52.97
2023-03-06T11:59:28.361Z,53.98
2023-03-06T12:10:09.775Z,55.06
2023-03-06T12:20:40.134Z,52.83
2023-03-06T12:30:57.057Z,51.47
2023-03-06T12:41:14.303Z,48.90
2023-03-06T12:51:20.260Z,49.31
2023-03-06T13:01:40.771Z,49.33
2023-03-06T13:11:49.103Z,50.35
2023-03-06T13:21:54.396Z,51.94
2023-03-06T13:31:58.162Z,52.24
2023-03-06T13:42:00.492Z,52.13
2023-03-06T13:52:10.988Z,53.39
2023-03-06T14:02:51.064Z,54.68
2023-03-06T14:13:17.734Z,53.78
2023-03-06T14:23:35.731Z,53.65
2023-03-06T14:33:53.032Z,54.70
2023-03-06T14:44:08.558Z,56.28
2023-03-06T14:54:17.381Z,57.69
2023-03-06T15:04:41.144Z,57.18
2023-03-06T15:14:58.692Z,57.51
2023-03-06T15:25:26.882Z,58.25
2023-03-06T15:35:38.341Z,58.28
2023-03-06T15:45:40.708Z,59.40
2023-03-06T15:55:43.323Z,60.29
2023-03-06T16:05:45.508Z,60.72
2023-03-06T16:15:50.197Z,61.20
2023-03-06T16:25:52.549Z,62.17
2023-03-06T16:35:54.766Z,63.52
2023-03-06T16:45:57.153Z,64.28
2023-03-06T16:55:59.325Z,65.14
2023-03-06T17:06:01.533Z,65.27
2023-03-06T17:16:04.040Z,66.25
2023-03-06T17:26:13.849Z,66.64
2023-03-06T17:36:16.423Z,67.61
2023-03-06T17:46:18.964Z,67.63
2023-03-06T17:56:21.659Z,68.67
2023-03-06T18:06:26.228Z,69.66
2023-03-06T18:16:28.518Z,70.52
2023-03-06T18:26:30.868Z,69.41
2023-03-06T18:36:34.416Z,70.66
2023-03-06T18:46:38.594Z,70.92
2023-03-06T18:56:44.203Z,71.42
2023-03-06T19:06:46.482Z,71.61
2023-03-06T19:16:49.454Z,70.78
2023-03-06T19:26:51.665Z,71.51
2023-03-06T19:36:53.923Z,72.27
2023-03-06T19:46:56.191Z,72.86
2023-03-06T19:56:58.580Z,72.88
2023-03-06T20:07:01.740Z,72.42
2023-03-06T20:17:03.977Z,72.93
2023-03-06T20:27:06.566Z,73.33
2023-03-06T20:37:10.008Z,73.51
2023-03-06T20:47:12.263Z,72.07
2023-03-06T20:57:14.529Z,72.40
2023-03-06T21:07:17.087Z,73.46
2023-03-06T21:17:19.378Z,72.98
2023-03-06T21:27:21.558Z,74.01
2023-03-06T21:40:11.408Z,73.06
2023-03-06T21:50:14.033Z,72.72
2023-03-06T22:00:16.469Z,73.78
2023-03-06T22:10:18.754Z,72.86
2023-03-06T22:20:21.013Z,73.31
2023-03-06T22:30:23.188Z,73.50
2023-03-06T22:40:26.160Z,72.58
2023-03-06T22:50:28.418Z,72.80
2023-03-06T23:00:30.665Z,72.59
2023-03-06T23:10:38.226Z,74.88
2023-03-06T23:20:43.973Z,76.31
2023-03-06T23:30:46.390Z,75.94
2023-03-06T23:40:49.687Z,77.12
2023-03-06T23:50:51.881Z,76.66
